Baptist Corner, Massachusetts
Current Conditions -  °F | °C
As of 7:52 AM on Saturday 20 Dec 2014 (Local Time) from KAQW Reporting Station
Clear Clear  
Wind Chill: 17°   Ceiling: Unl
Heat Index: 17°   Visibility: 10mi
Dew Point: 14°   Wind: 0mph
Humidity: 88%   Direction: NA
Pressure: 30.29"   Gusts: NA
Location:  42.6026°N, 72.7442°W
Report Text: KAQW 201252Z AUTO 00000KT 10SM CLR M08/M10 A3029 RMK AO2 SLP268 T10831100
Loading
Personal Weather Stations






























Interactive Weather Map New forecast layout! Learn more

10-Day Weather Forecast

Advertisements
Track Severe Weather on mobile